Terminal Aerodrome Forecast
Issued by NWS Springfield, MO

Home | Current Version | Previous Version | Text Only | Print | Product List | Glossary On
Versions: 1 2 3 4 5 6 7 8 9 10 11 12 13 14 15 16 17
000
FTUS43 KSGF 292300
TAFSGF
TAF
KSGF 292320Z 3000/3024 26005KT P6SM SCT100
     FM300300 22008KT P6SM SCT200
     FM301200 21006KT P6SM SCT050 BKN100 PROB30 3012/3018 -TSRA
      SCT040 BKN050CB=

USA.gov is the U.S. government's official web portal to all federal, state and local government web resources and services.